sensor_id;sensor_type;location;lat;lon;timestamp;P1;durP1;ratioP1;P2;durP2;ratioP2
38397;SDS011;24179;52.094;4.408;2024-03-08T16:13:27;4.47;;;1.23;;
38397;SDS011;24179;52.094;4.408;2024-03-08T16:16:27;8.18;;;1.80;;
38397;SDS011;24179;52.094;4.408;2024-03-08T16:19:30;3.72;;;1.52;;
38397;SDS011;24179;52.094;4.408;2024-03-08T16:22:31;3.35;;;1.48;;
38397;SDS011;24179;52.094;4.408;2024-03-08T16:25:32;4.25;;;1.30;;
38397;SDS011;24179;52.094;4.408;2024-03-08T16:28:33;6.57;;;1.77;;
38397;SDS011;24179;52.094;4.408;2024-03-08T16:31:41;5.43;;;1.30;;
38397;SDS011;24179;52.094;4.408;2024-03-08T16:34:45;3.78;;;1.30;;
38397;SDS011;24179;52.094;4.408;2024-03-08T16:37:45;3.53;;;1.27;;
38397;SDS011;24179;52.094;4.408;2024-03-08T16:40:48;3.45;;;1.58;;
38397;SDS011;24179;52.094;4.408;2024-03-08T16:43:53;5.35;;;1.60;;
38397;SDS011;24179;52.094;4.408;2024-03-08T16:46:53;4.93;;;1.57;;
38397;SDS011;24179;52.094;4.408;2024-03-08T16:49:58;12.60;;;2.50;;
38397;SDS011;24179;52.094;4.408;2024-03-08T16:53:00;3.50;;;1.30;;
38397;SDS011;24179;52.094;4.408;2024-03-08T16:56:01;4.50;;;1.40;;
38397;SDS011;24179;52.094;4.408;2024-03-08T16:59:02;2.97;;;1.20;;
38397;SDS011;24179;52.094;4.408;2024-03-08T17:02:04;2.47;;;1.20;;
38397;SDS011;24179;52.094;4.408;2024-03-08T17:08:06;3.37;;;1.40;;
38397;SDS011;24179;52.094;4.408;2024-03-08T17:11:06;4.47;;;1.40;;
38397;SDS011;24179;52.094;4.408;2024-03-08T17:14:11;4.35;;;1.45;;
38397;SDS011;24179;52.094;4.408;2024-03-08T17:17:12;5.43;;;1.90;;
38397;SDS011;24179;52.094;4.408;2024-03-08T17:20:14;5.07;;;1.50;;
38397;SDS011;24179;52.094;4.408;2024-03-08T17:23:19;2.80;;;1.45;;
38397;SDS011;24179;52.094;4.408;2024-03-08T17:29:22;3.15;;;1.65;;
38397;SDS011;24179;52.094;4.408;2024-03-08T17:32:23;3.23;;;1.50;;
38397;SDS011;24179;52.094;4.408;2024-03-08T17:35:25;3.00;;;1.53;;
38397;SDS011;24179;52.094;4.408;2024-03-08T17:38:26;3.63;;;1.33;;
38397;SDS011;24179;52.094;4.408;2024-03-08T17:41:28;3.40;;;1.50;;
38397;SDS011;24179;52.094;4.408;2024-03-08T17:44:29;2.20;;;1.30;;
38397;SDS011;24179;52.094;4.408;2024-03-08T17:47:30;4.57;;;1.70;;
38397;SDS011;24179;52.094;4.408;2024-03-08T17:50:30;2.83;;;1.43;;
38397;SDS011;24179;52.094;4.408;2024-03-08T17:53:31;4.37;;;1.30;;
38397;SDS011;24179;52.094;4.408;2024-03-08T17:56:34;3.72;;;1.77;;
38397;SDS011;24179;52.094;4.408;2024-03-08T17:59:35;3.73;;;1.70;;
38397;SDS011;24179;52.094;4.408;2024-03-08T18:02:35;3.27;;;1.90;;
38397;SDS011;24179;52.094;4.408;2024-03-08T18:05:36;5.23;;;1.80;;
38397;SDS011;24179;52.094;4.408;2024-03-08T18:08:38;5.22;;;1.67;;
38397;SDS011;24179;52.094;4.408;2024-03-08T18:11:42;3.17;;;1.45;;
38397;SDS011;24179;52.094;4.408;2024-03-08T18:14:43;2.67;;;1.50;;
38397;SDS011;24179;52.094;4.408;2024-03-08T18:17:44;3.47;;;1.57;;
38397;SDS011;24179;52.094;4.408;2024-03-08T18:20:46;2.70;;;1.55;;
38397;SDS011;24179;52.094;4.408;2024-03-08T18:23:46;2.97;;;1.43;;
38397;SDS011;24179;52.094;4.408;2024-03-08T18:26:47;6.82;;;1.85;;
38397;SDS011;24179;52.094;4.408;2024-03-08T18:29:48;2.63;;;1.52;;
38397;SDS011;24179;52.094;4.408;2024-03-08T18:32:49;3.03;;;1.63;;
38397;SDS011;24179;52.094;4.408;2024-03-08T18:35:53;2.80;;;1.38;;
38397;SDS011;24179;52.094;4.408;2024-03-08T18:38:54;3.95;;;1.83;;
38397;SDS011;24179;52.094;4.408;2024-03-08T18:41:56;2.83;;;1.55;;
38397;SDS011;24179;52.094;4.408;2024-03-08T18:44:57;3.57;;;1.43;;
38397;SDS011;24179;52.094;4.408;2024-03-08T18:47:57;2.97;;;1.40;;
38397;SDS011;24179;52.094;4.408;2024-03-08T18:50:58;2.80;;;1.50;;
38397;SDS011;24179;52.094;4.408;2024-03-08T18:53:59;3.17;;;1.52;;
38397;SDS011;24179;52.094;4.408;2024-03-08T18:56:59;2.27;;;1.30;;
38397;SDS011;24179;52.094;4.408;2024-03-08T19:00:02;3.40;;;1.40;;
38397;SDS011;24179;52.094;4.408;2024-03-08T19:03:12;3.03;;;1.70;;
38397;SDS011;24179;52.094;4.408;2024-03-08T19:06:13;2.83;;;1.35;;
38397;SDS011;24179;52.094;4.408;2024-03-08T19:09:14;3.20;;;1.57;;
38397;SDS011;24179;52.094;4.408;2024-03-08T19:12:14;2.83;;;1.20;;
38397;SDS011;24179;52.094;4.408;2024-03-08T19:15:15;3.57;;;1.60;;
38397;SDS011;24179;52.094;4.408;2024-03-08T19:18:16;3.30;;;1.40;;
38397;SDS011;24179;52.094;4.408;2024-03-08T19:21:17;3.35;;;1.70;;
38397;SDS011;24179;52.094;4.408;2024-03-08T19:24:17;3.20;;;1.50;;
38397;SDS011;24179;52.094;4.408;2024-03-08T19:27:18;3.73;;;1.40;;
38397;SDS011;24179;52.094;4.408;2024-03-08T19:30:18;2.27;;;1.50;;
38397;SDS011;24179;52.094;4.408;2024-03-08T19:33:27;3.50;;;1.80;;
38397;SDS011;24179;52.094;4.408;2024-03-08T19:36:27;2.65;;;1.52;;
38397;SDS011;24179;52.094;4.408;2024-03-08T19:39:28;3.13;;;1.67;;
38397;SDS011;24179;52.094;4.408;2024-03-08T19:42:30;3.10;;;1.42;;
38397;SDS011;24179;52.094;4.408;2024-03-08T19:45:31;3.20;;;1.60;;
38397;SDS011;24179;52.094;4.408;2024-03-08T19:51:33;3.33;;;1.27;;
38397;SDS011;24179;52.094;4.408;2024-03-08T19:54:37;2.55;;;1.42;;
38397;SDS011;24179;52.094;4.408;2024-03-08T19:57:39;2.90;;;1.45;;
38397;SDS011;24179;52.094;4.408;2024-03-08T20:00:40;2.85;;;1.52;;
38397;SDS011;24179;52.094;4.408;2024-03-08T20:03:41;2.60;;;1.50;;
38397;SDS011;24179;52.094;4.408;2024-03-08T20:06:42;3.10;;;1.57;;
38397;SDS011;24179;52.094;4.408;2024-03-08T20:09:45;2.63;;;1.38;;
38397;SDS011;24179;52.094;4.408;2024-03-08T20:12:46;2.67;;;1.50;;
38397;SDS011;24179;52.094;4.408;2024-03-08T20:15:46;2.93;;;1.30;;
38397;SDS011;24179;52.094;4.408;2024-03-08T20:18:52;3.03;;;1.48;;
38397;SDS011;24179;52.094;4.408;2024-03-08T20:21:53;2.40;;;1.30;;
38397;SDS011;24179;52.094;4.408;2024-03-08T20:24:54;1.85;;;1.10;;
38397;SDS011;24179;52.094;4.408;2024-03-08T20:27:55;3.00;;;1.63;;
38397;SDS011;24179;52.094;4.408;2024-03-08T20:31:00;3.00;;;1.65;;
38397;SDS011;24179;52.094;4.408;2024-03-08T20:34:01;2.70;;;1.40;;
38397;SDS011;24179;52.094;4.408;2024-03-08T20:37:01;3.57;;;1.90;;
38397;SDS011;24179;52.094;4.408;2024-03-08T20:40:09;3.08;;;1.50;;
38397;SDS011;24179;52.094;4.408;2024-03-08T20:43:11;3.33;;;1.60;;
38397;SDS011;24179;52.094;4.408;2024-03-08T20:46:14;1.85;;;1.30;;
38397;SDS011;24179;52.094;4.408;2024-03-08T20:49:16;4.13;;;1.88;;
38397;SDS011;24179;52.094;4.408;2024-03-08T20:52:19;2.70;;;1.40;;
38397;SDS011;24179;52.094;4.408;2024-03-08T20:55:21;3.17;;;1.55;;
38397;SDS011;24179;52.094;4.408;2024-03-08T20:58:23;3.15;;;1.42;;
38397;SDS011;24179;52.094;4.408;2024-03-08T21:01:25;2.78;;;1.52;;
38397;SDS011;24179;52.094;4.408;2024-03-08T21:04:30;2.90;;;1.70;;
38397;SDS011;24179;52.094;4.408;2024-03-08T21:07:31;3.07;;;1.57;;
38397;SDS011;24179;52.094;4.408;2024-03-08T21:10:32;3.80;;;1.70;;
38397;SDS011;24179;52.094;4.408;2024-03-08T21:13:34;2.67;;;1.50;;
38397;SDS011;24179;52.094;4.408;2024-03-08T21:16:36;2.45;;;1.50;;
38397;SDS011;24179;52.094;4.408;2024-03-08T21:19:36;3.38;;;1.77;;
38397;SDS011;24179;52.094;4.408;2024-03-08T21:22:40;2.30;;;1.40;;
38397;SDS011;24179;52.094;4.408;2024-03-08T21:25:41;3.53;;;1.80;;
38397;SDS011;24179;52.094;4.408;2024-03-08T21:28:43;2.92;;;1.55;;
38397;SDS011;24179;52.094;4.408;2024-03-08T21:31:43;2.93;;;1.50;;
38397;SDS011;24179;52.094;4.408;2024-03-08T21:34:44;3.57;;;1.73;;
38397;SDS011;24179;52.094;4.408;2024-03-08T21:37:44;2.37;;;1.30;;
38397;SDS011;24179;52.094;4.408;2024-03-08T21:43:48;3.30;;;1.63;;
38397;SDS011;24179;52.094;4.408;2024-03-08T21:46:50;2.83;;;1.48;;
38397;SDS011;24179;52.094;4.408;2024-03-08T21:49:50;2.47;;;1.52;;
38397;SDS011;24179;52.094;4.408;2024-03-08T21:52:52;2.42;;;1.52;;
38397;SDS011;24179;52.094;4.408;2024-03-08T21:55:52;2.33;;;1.30;;
38397;SDS011;24179;52.094;4.408;2024-03-08T21:58:54;2.20;;;1.33;;
38397;SDS011;24179;52.094;4.408;2024-03-08T22:01:55;4.60;;;1.70;;
38397;SDS011;24179;52.094;4.408;2024-03-08T22:04:55;2.37;;;1.40;;
38397;SDS011;24179;52.094;4.408;2024-03-08T22:07:56;3.03;;;1.60;;
38397;SDS011;24179;52.094;4.408;2024-03-08T22:10:57;3.53;;;2.00;;
38397;SDS011;24179;52.094;4.408;2024-03-08T22:13:59;5.45;;;2.22;;
38397;SDS011;24179;52.094;4.408;2024-03-08T22:16:59;4.97;;;2.23;;
38397;SDS011;24179;52.094;4.408;2024-03-08T22:20:00;6.25;;;2.45;;
38397;SDS011;24179;52.094;4.408;2024-03-08T22:23:10;4.90;;;2.42;;
38397;SDS011;24179;52.094;4.408;2024-03-08T22:26:12;5.80;;;2.17;;
38397;SDS011;24179;52.094;4.408;2024-03-08T22:29:14;6.72;;;2.08;;
38397;SDS011;24179;52.094;4.408;2024-03-08T22:32:15;8.63;;;2.58;;
38397;SDS011;24179;52.094;4.408;2024-03-08T22:35:17;6.70;;;2.72;;
38397;SDS011;24179;52.094;4.408;2024-03-08T22:38:17;5.97;;;2.33;;
38397;SDS011;24179;52.094;4.408;2024-03-08T22:41:18;6.93;;;2.60;;
38397;SDS011;24179;52.094;4.408;2024-03-08T22:44:19;7.22;;;2.40;;
38397;SDS011;24179;52.094;4.408;2024-03-08T22:47:19;6.40;;;2.53;;
38397;SDS011;24179;52.094;4.408;2024-03-08T22:50:22;6.00;;;2.60;;
38397;SDS011;24179;52.094;4.408;2024-03-08T22:53:24;5.90;;;2.50;;
38397;SDS011;24179;52.094;4.408;2024-03-08T22:56:27;4.50;;;2.28;;
38397;SDS011;24179;52.094;4.408;2024-03-08T22:59:28;8.48;;;2.83;;
38397;SDS011;24179;52.094;4.408;2024-03-08T23:02:29;5.83;;;2.73;;
38397;SDS011;24179;52.094;4.408;2024-03-08T23:05:31;7.63;;;2.58;;
38397;SDS011;24179;52.094;4.408;2024-03-08T23:08:33;4.25;;;2.40;;
38397;SDS011;24179;52.094;4.408;2024-03-08T23:11:34;5.65;;;2.70;;
38397;SDS011;24179;52.094;4.408;2024-03-08T23:14:35;5.97;;;2.40;;
38397;SDS011;24179;52.094;4.408;2024-03-08T23:17:44;5.10;;;2.70;;
38397;SDS011;24179;52.094;4.408;2024-03-08T23:20:46;4.93;;;2.42;;
38397;SDS011;24179;52.094;4.408;2024-03-08T23:23:48;5.85;;;2.75;;
38397;SDS011;24179;52.094;4.408;2024-03-08T23:29:51;5.82;;;2.95;;
38397;SDS011;24179;52.094;4.408;2024-03-08T23:32:52;5.83;;;2.80;;
38397;SDS011;24179;52.094;4.408;2024-03-08T23:38:54;5.97;;;2.53;;
38397;SDS011;24179;52.094;4.408;2024-03-08T23:41:54;5.10;;;2.90;;
38397;SDS011;24179;52.094;4.408;2024-03-08T23:44:55;5.60;;;2.77;;
38397;SDS011;24179;52.094;4.408;2024-03-08T23:47:56;6.20;;;2.30;;
38397;SDS011;24179;52.094;4.408;2024-03-08T23:50:59;5.53;;;2.63;;
38397;SDS011;24179;52.094;4.408;2024-03-08T23:53:59;4.97;;;2.60;;
38397;SDS011;24179;52.094;4.408;2024-03-08T23:57:00;4.77;;;2.43;;
